Time;durP1;ratioP1;P1;durP2;ratioP2;P2;SDS_P1;SDS_P2;PMS_P1;PMS_P2;Temp;Humidity;BMP_temperature;BMP_pressure;BME280_temperature;BME280_humidity;BME280_pressure;Samples;Min_cycle;Max_cycle;Signal;HPM_P1;HPM_P2
2022/11/20 00:06:40;;;;;;;8.70;5.68;;;;;;;20.49;54.88;99973.03;20697921;28;20042;-84
2022/11/20 00:16:41;;;;;;;9.15;5.82;;;;;;;20.44;55.16;99970.78;20651400;28;20065;-83
2022/11/20 00:26:42;;;;;;;9.95;5.85;;;;;;;20.51;55.15;99993.94;20693045;28;20034;-83
2022/11/20 00:36:42;;;;;;;10.13;5.90;;;;;;;20.47;54.99;99996.84;20695801;28;20046;-83
2022/11/20 00:46:43;;;;;;;10.05;5.60;;;;;;;20.46;55.02;99999.59;20707809;28;20037;-84
2022/11/20 00:56:43;;;;;;;9.13;5.25;;;;;;;20.44;55.00;99980.47;20696794;28;20126;-84
2022/11/20 01:06:43;;;;;;;9.07;5.80;;;;;;;20.42;54.96;99979.75;20696377;28;20049;-85
2022/11/20 01:16:48;;;;;;;9.30;5.30;;;;;;;20.45;55.11;99990.03;20688697;28;20066;-85
2022/11/20 01:26:50;;;;;;;7.25;5.38;;;;;;;20.42;54.91;99991.13;20699657;28;20037;-84
2022/11/20 01:36:52;;;;;;;7.63;5.60;;;;;;;20.39;54.96;99980.00;20698746;28;20046;-84
2022/11/20 01:47:04;;;;;;;8.13;5.60;;;;;;;20.42;55.05;99967.44;20678803;28;20037;-84
2022/11/20 01:57:09;;;;;;;8.23;5.63;;;;;;;20.37;55.22;99956.44;20699857;28;20116;-84
2022/11/20 02:07:10;;;;;;;8.48;5.63;;;;;;;20.36;55.08;99941.66;20707115;28;20054;-83
2022/11/20 02:17:10;;;;;;;9.45;6.05;;;;;;;20.35;54.60;99966.28;20704546;28;20047;-83
2022/11/20 02:27:13;;;;;;;8.68;6.05;;;;;;;20.34;54.89;99961.97;20684896;28;20042;-85
2022/11/20 02:37:14;;;;;;;9.10;5.95;;;;;;;20.31;54.82;99949.06;20636124;28;20038;-84
2022/11/20 02:47:15;;;;;;;9.27;5.50;;;;;;;20.35;54.99;99939.97;20695153;28;20064;-84
2022/11/20 02:57:15;;;;;;;9.43;5.78;;;;;;;20.35;55.35;99939.13;20705064;28;20038;-85
2022/11/20 03:07:15;;;;;;;10.98;5.43;;;;;;;20.35;54.96;99918.94;20693130;28;20048;-84
2022/11/20 03:17:16;;;;;;;8.75;6.03;;;;;;;20.33;55.05;99918.22;20695821;28;20497;-84
2022/11/20 03:27:16;;;;;;;8.10;5.65;;;;;;;20.35;54.83;99945.25;20686974;28;20066;-85
2022/11/20 03:37:17;;;;;;;7.57;5.38;;;;;;;20.35;55.19;99939.13;20679579;28;20042;-84
2022/11/20 03:47:17;;;;;;;7.15;5.38;;;;;;;20.34;55.11;99917.28;20676583;28;20775;-85
2022/11/20 03:57:18;;;;;;;8.27;6.10;;;;;;;20.30;54.92;99918.50;20688335;28;20485;-86
2022/11/20 04:07:18;;;;;;;7.72;5.65;;;;;;;20.31;54.40;99923.63;20691993;28;20046;-85
2022/11/20 04:17:18;;;;;;;21.77;5.75;;;;;;;20.31;54.34;99909.63;20694219;28;20125;-86
2022/11/20 04:27:19;;;;;;;11.23;5.35;;;;;;;20.33;54.83;99891.94;20695506;28;20038;-84
2022/11/20 04:37:19;;;;;;;8.02;5.45;;;;;;;20.35;55.26;99890.03;20681337;28;21425;-86
2022/11/20 04:47:20;;;;;;;7.05;5.05;;;;;;;20.37;55.01;99908.28;20665628;28;20054;-85
2022/11/20 04:57:21;;;;;;;8.05;5.65;;;;;;;20.36;55.12;99862.78;20668021;28;20050;-84
2022/11/20 05:07:22;;;;;;;7.28;4.97;;;;;;;20.38;55.23;99871.34;20692849;28;20047;-84
2022/11/20 05:17:22;;;;;;;8.02;5.68;;;;;;;20.48;55.10;99877.53;20687690;28;20048;-85
2022/11/20 05:27:22;;;;;;;12.45;6.18;;;;;;;20.56;54.80;99858.47;20693626;28;20529;-87
2022/11/20 05:37:23;;;;;;;8.55;6.25;;;;;;;20.63;54.50;99833.34;20698722;28;20457;-84
2022/11/20 05:47:26;;;;;;;9.23;6.50;;;;;;;20.70;54.02;99845.97;20709256;28;20110;-85
2022/11/20 05:57:28;;;;;;;10.30;7.30;;;;;;;20.75;54.12;99863.06;20660672;28;20038;-85
2022/11/20 06:07:28;;;;;;;10.27;7.38;;;;;;;20.77;53.29;99868.19;20705130;28;20098;-85
2022/11/20 06:17:28;;;;;;;10.88;7.75;;;;;;;20.83;54.35;99886.09;20668295;28;20125;-84
2022/11/20 06:27:29;;;;;;;14.18;9.45;;;;;;;20.97;55.42;99861.28;20689644;28;20043;-85
2022/11/20 06:37:29;;;;;;;14.25;9.82;;;;;;;21.06;55.12;99897.31;20682860;28;20099;-85
2022/11/20 06:47:30;;;;;;;13.07;10.02;;;;;;;21.13;54.25;99915.22;20696868;28;20049;-80
2022/11/20 06:57:30;;;;;;;12.63;9.52;;;;;;;21.23;54.65;99916.94;20681452;28;20054;-79
2022/11/20 07:07:30;;;;;;;20.77;12.82;;;;;;;21.29;54.57;99884.00;20632331;28;20050;-79
2022/11/20 07:17:31;;;;;;;19.23;14.00;;;;;;;21.37;54.88;99891.25;20685400;28;20034;-80
2022/11/20 07:27:31;;;;;;;19.58;14.63;;;;;;;21.43;54.73;99914.41;20672710;28;20053;-81
2022/11/20 07:37:35;;;;;;;25.48;15.70;;;;;;;21.45;54.63;99936.19;20673758;28;20392;-78
2022/11/20 07:47:36;;;;;;;22.77;15.13;;;;;;;21.50;54.85;99930.53;20670598;28;20131;-78
2022/11/20 07:57:36;;;;;;;22.65;14.80;;;;;;;21.53;55.02;99927.63;20682773;28;20081;-79
2022/11/20 08:07:39;;;;;;;22.30;15.70;;;;;;;21.55;54.25;99910.72;20675858;28;20077;-76
2022/11/20 08:17:39;;;;;;;26.10;14.60;;;;;;;20.91;47.74;99919.66;20681930;28;20101;-79
2022/11/20 08:27:40;;;;;;;18.98;13.27;;;;;;;21.33;50.36;99918.81;20708040;28;20347;-78
2022/11/20 08:37:41;;;;;;;19.45;12.63;;;;;;;21.42;51.38;99910.97;20693283;28;20132;-79
2022/11/20 08:47:42;;;;;;;16.92;12.13;;;;;;;21.50;52.80;99917.38;20664723;28;20037;-78
2022/11/20 08:57:43;;;;;;;15.98;11.80;;;;;;;21.56;53.11;99924.75;20684341;28;20046;-79
2022/11/20 09:07:43;;;;;;;16.13;11.27;;;;;;;21.54;52.79;99934.56;20689187;28;20038;-78
2022/11/20 09:17:53;;;;;;;18.20;11.90;;;;;;;21.54;53.03;99937.19;20686201;28;20046;-78
2022/11/20 09:27:58;;;;;;;18.38;10.70;;;;;;;21.57;53.26;99955.41;20681145;28;20053;-78
2022/11/20 09:38:04;;;;;;;16.13;10.43;;;;;;;21.58;53.47;99933.34;20678173;28;20046;-78
2022/11/20 09:48:42;;;;;;;18.65;11.20;;;;;;;21.50;50.41;99920.00;20663627;28;20048;-77
2022/11/20 09:58:47;;;;;;;21.25;10.52;;;;;;;21.51;51.37;99911.13;20592222;28;20049;-79
2022/11/20 10:08:59;;;;;;;17.23;9.27;;;;;;;21.48;51.56;99909.56;20658151;28;20050;-80
2022/11/20 10:29:38;;;;;;;13.55;8.18;;;;;;;21.56;51.80;99872.91;20675850;28;20046;-79
2022/11/20 10:39:50;;;;;;;12.30;8.23;;;;;;;21.62;52.06;99861.00;20688719;28;20038;-82
2022/11/20 10:49:55;;;;;;;12.23;6.67;;;;;;;21.66;51.95;99872.09;20652972;28;20077;-79
2022/11/20 11:00:12;;;;;;;13.98;8.10;;;;;;;21.68;51.75;99876.28;20675647;28;20342;-77
2022/11/20 11:10:22;;;;;;;16.77;7.20;;;;;;;21.76;52.09;99891.41;20692086;28;20046;-77
2022/11/20 11:20:25;;;;;;;20.65;12.10;;;;;;;20.05;35.56;99895.97;20647682;28;20053;-79
2022/11/20 11:30:29;;;;;;;18.10;11.23;;;;;;;20.55;39.67;99885.72;20657852;28;20060;-78
2022/11/20 11:40:34;;;;;;;19.20;8.65;;;;;;;20.91;44.69;99870.50;20645076;28;20703;-79
2022/11/20 11:50:34;;;;;;;14.32;7.40;;;;;;;21.08;46.56;99865.59;20684569;28;20070;-76
2022/11/20 12:00:39;;;;;;;10.80;6.97;;;;;;;21.15;48.23;99852.75;20679629;28;20160;-77
2022/11/20 12:11:05;;;;;;;12.23;6.40;;;;;;;21.24;49.29;99860.69;20671242;28;20100;-77
2022/11/20 12:21:11;;;;;;;10.18;6.60;;;;;;;21.30;49.72;99854.09;20691447;28;20050;-76
2022/11/20 12:31:41;;;;;;;9.70;6.13;;;;;;;21.32;50.00;99833.69;20671370;28;20111;-76
2022/11/20 12:52:55;;;;;;;11.32;6.82;;;;;;;21.29;50.36;99857.66;20678688;28;20049;-75
2022/11/20 13:03:38;;;;;;;9.95;6.85;;;;;;;21.32;50.75;99867.09;20661323;28;20066;-75
2022/11/20 13:14:10;;;;;;;9.73;7.47;;;;;;;21.35;50.75;99864.19;20684713;28;20473;-75
2022/11/20 13:24:23;;;;;;;18.70;7.90;;;;;;;21.26;48.25;99847.41;20660749;28;20121;-77
2022/11/20 13:34:25;;;;;;;;;;;;;;;21.37;49.65;99849.94;20659750;28;20038;-77
2022/11/20 13:44:44;;;;;;;14.00;8.03;;;;;;;21.38;49.89;99827.06;20674549;28;19921;-77
2022/11/20 13:55:13;;;;;;;10.95;7.82;;;;;;;21.41;50.31;99816.25;20676542;28;20038;-77
2022/11/20 14:05:22;;;;;;;13.50;7.55;;;;;;;21.47;50.89;99812.25;20660448;28;20038;-78
2022/11/20 14:15:29;;;;;;;13.10;7.35;;;;;;;21.50;50.63;99812.81;20654825;28;20042;-79
2022/11/20 14:25:31;;;;;;;9.80;7.25;;;;;;;21.52;50.96;99815.31;20672958;28;20054;-79
2022/11/20 14:35:36;;;;;;;12.07;7.05;;;;;;;21.53;50.88;99827.53;20667061;28;20575;-79
2022/11/20 14:45:38;;;;;;;17.65;11.32;;;;;;;20.85;40.24;99844.72;20635886;28;20112;-79
2022/11/20 14:55:39;;;;;;;14.27;8.80;;;;;;;21.04;45.93;99838.69;20664914;28;20428;-81
2022/11/20 15:05:48;;;;;;;13.98;8.18;;;;;;;21.13;47.71;99854.69;20684936;28;20042;-82
2022/11/20 15:15:54;;;;;;;10.70;7.20;;;;;;;21.18;49.15;99858.59;20660819;28;20038;-83
2022/11/20 15:25:56;;;;;;;14.77;7.32;;;;;;;21.22;48.95;99861.81;20647801;28;20072;-78
2022/11/20 15:35:58;;;;;;;10.77;6.85;;;;;;;21.24;49.52;99865.16;20613147;28;20419;-79
2022/11/20 15:46:05;;;;;;;18.23;8.00;;;;;;;21.26;49.67;99874.56;20628177;28;20046;-78
2022/11/20 15:56:05;;;;;;;56.53;17.40;;;;;;;21.26;51.01;99866.69;20638150;28;20042;-77
2022/11/20 16:06:06;;;;;;;59.20;16.77;;;;;;;21.28;51.33;99870.00;20667455;28;20050;-78
2022/11/20 16:16:19;;;;;;;46.58;15.15;;;;;;;21.28;51.15;99864.72;20632805;28;20482;-77
2022/11/20 16:26:20;;;;;;;39.00;12.30;;;;;;;21.31;51.91;99854.91;20649017;28;20602;-80
2022/11/20 16:36:24;;;;;;;40.65;12.73;;;;;;;21.28;51.87;99863.91;20677092;28;20038;-80
2022/11/20 16:46:26;;;;;;;39.63;12.27;;;;;;;21.26;51.96;99858.78;20674754;28;20050;-78
2022/11/20 16:56:27;;;;;;;30.52;10.88;;;;;;;21.26;51.99;99844.75;20683303;28;20209;-78
2022/11/20 17:06:31;;;;;;;24.13;9.80;;;;;;;21.22;52.43;99843.38;20680574;28;20051;-76
2022/11/20 17:16:32;;;;;;;23.50;9.77;;;;;;;21.21;52.42;99825.91;20679995;28;20283;-77
2022/11/20 17:26:33;;;;;;;20.80;8.93;;;;;;;21.19;52.49;99815.50;20677788;28;20493;-77
2022/11/20 17:36:34;;;;;;;22.65;9.40;;;;;;;21.15;52.04;99814.09;20640390;28;20096;-77
2022/11/20 17:46:34;;;;;;;20.58;8.40;;;;;;;21.15;52.70;99794.84;20670084;28;20038;-74
2022/11/20 18:07:00;;;;;;;23.27;10.10;;;;;;;21.26;54.48;99802.63;20656538;28;20030;-76
2022/11/20 18:17:03;;;;;;;39.20;22.90;;;;;;;21.36;54.81;99824.56;20627575;28;20048;-77
2022/11/20 18:27:06;;;;;;;44.40;26.15;;;;;;;21.46;55.43;99837.78;20655787;28;20053;-75
2022/11/20 18:37:08;;;;;;;52.05;33.05;;;;;;;21.51;55.22;99855.81;20648968;28;20099;-76
2022/11/20 18:47:12;;;;;;;43.85;28.90;;;;;;;21.56;54.84;99874.69;20672656;28;20064;-75
2022/11/20 18:57:14;;;;;;;43.28;28.45;;;;;;;21.57;54.32;99871.94;20661496;28;20085;-76
2022/11/20 19:07:15;;;;;;;35.87;25.70;;;;;;;21.57;54.65;99871.94;20676424;28;20478;-76
2022/11/20 19:17:16;;;;;;;38.28;24.42;;;;;;;21.57;54.50;99861.41;20649545;28;20497;-75
2022/11/20 19:27:16;;;;;;;34.42;22.48;;;;;;;21.56;53.83;99877.31;20661805;28;20043;-75
2022/11/20 19:37:17;;;;;;;33.35;22.15;;;;;;;21.53;54.12;99848.59;20643354;28;21779;-75
2022/11/20 19:47:18;;;;;;;34.83;20.02;;;;;;;21.49;53.50;99852.47;20647850;28;20132;-77
2022/11/20 19:57:18;;;;;;;32.17;19.08;;;;;;;21.52;53.55;99836.38;20629270;28;20042;-76
2022/11/20 20:07:18;;;;;;;29.48;17.85;;;;;;;21.47;53.55;99823.66;20627119;28;20050;-75
2022/11/20 20:17:19;;;;;;;26.40;16.67;;;;;;;21.47;53.42;99814.88;20591635;28;20112;-75
2022/11/20 20:27:19;;;;;;;25.38;16.08;;;;;;;21.41;53.62;99817.09;20621603;28;20038;-75
2022/11/20 20:37:19;;;;;;;22.40;15.77;;;;;;;21.43;53.20;99804.63;20666832;28;20369;-75
2022/11/20 20:47:20;;;;;;;25.88;14.27;;;;;;;21.38;53.34;99798.91;20663764;28;20034;-75
2022/11/20 20:57:22;;;;;;;22.00;13.45;;;;;;;21.27;53.79;99818.28;20675925;28;20448;-75
2022/11/20 21:07:22;;;;;;;22.83;15.97;;;;;;;21.18;52.63;99805.94;20648684;28;20046;-78
2022/11/20 21:17:23;;;;;;;28.80;15.70;;;;;;;21.14;52.70;99820.34;20658129;28;20045;-78
2022/11/20 21:27:23;;;;;;;22.52;14.65;;;;;;;21.09;52.86;99818.09;20666853;28;20043;-78
2022/11/20 21:37:23;;;;;;;21.58;14.60;;;;;;;21.02;53.41;99826.63;20674528;28;20045;-78
2022/11/20 21:47:24;;;;;;;19.75;13.55;;;;;;;20.93;53.65;99823.00;20673917;28;20093;-79
2022/11/20 21:57:24;;;;;;;21.80;13.85;;;;;;;20.89;54.10;99813.72;20655347;28;20433;-79
2022/11/20 22:07:24;;;;;;;22.65;13.63;;;;;;;20.84;54.01;99819.34;20680725;28;20046;-78
2022/11/20 22:27:45;;;;;;;20.10;13.25;;;;;;;20.76;54.12;99782.34;20654130;28;20038;-78
2022/11/20 22:37:48;;;;;;;21.67;13.88;;;;;;;20.72;54.33;99773.03;20652292;28;20092;-78
2022/11/20 22:47:49;;;;;;;20.92;13.48;;;;;;;20.68;54.21;99768.97;20660940;28;20440;-78
2022/11/20 22:57:49;;;;;;;19.85;13.07;;;;;;;20.68;54.35;99759.28;20662479;28;20041;-79
2022/11/20 23:07:49;;;;;;;18.10;11.98;;;;;;;20.63;54.25;99754.41;20639992;28;20405;-79
2022/11/20 23:17:50;;;;;;;17.40;12.05;;;;;;;20.62;54.17;99747.47;20671690;28;20057;-79
2022/11/20 23:27:51;;;;;;;18.52;12.50;;;;;;;20.58;53.99;99746.09;20674601;28;20851;-79
2022/11/20 23:37:51;;;;;;;17.60;11.95;;;;;;;20.57;54.12;99744.41;20616536;28;20071;-77
2022/11/20 23:47:52;;;;;;;16.23;11.20;;;;;;;20.57;54.07;99731.25;20639273;28;20077;-79
2022/11/20 23:57:52;;;;;;;21.45;12.00;;;;;;;20.55;54.21;99727.91;20624249;28;20046;-79
